createdAt,value
2022-10-06T00:02:37.934Z,6.10
2022-10-06T00:05:40.889Z,5.88
2022-10-06T00:08:45.786Z,6.40
2022-10-06T00:11:48.190Z,6.65
2022-10-06T00:14:50.474Z,6.20
2022-10-06T00:17:52.980Z,6.70
2022-10-06T00:20:59.749Z,7.00
2022-10-06T00:24:02.164Z,6.68
2022-10-06T00:27:04.435Z,7.32
2022-10-06T00:30:12.241Z,6.63
2022-10-06T00:33:16.213Z,6.10
2022-10-06T00:36:19.135Z,6.50
2022-10-06T00:39:21.483Z,6.55
2022-10-06T00:42:33.324Z,6.45
2022-10-06T00:45:38.530Z,7.07
2022-10-06T00:48:41.037Z,6.53
2022-10-06T00:51:50.195Z,6.75
2022-10-06T00:54:52.605Z,7.10
2022-10-06T00:57:54.922Z,6.40
2022-10-06T01:00:57.969Z,6.30
2022-10-06T01:04:06.807Z,6.60
2022-10-06T01:07:10.093Z,6.53
2022-10-06T01:10:12.417Z,7.43
2022-10-06T01:13:15.106Z,8.48
2022-10-06T01:16:22.648Z,8.02
2022-10-06T01:19:54.553Z,8.33
2022-10-06T01:23:05.313Z,8.10
2022-10-06T01:26:10.732Z,7.38
2022-10-06T01:29:13.408Z,7.65
2022-10-06T01:32:16.010Z,7.68
2022-10-06T01:35:18.467Z,7.50
2022-10-06T01:38:22.019Z,7.38
2022-10-06T01:41:27.901Z,6.82
2022-10-06T01:44:30.521Z,6.50
2022-10-06T01:47:34.485Z,6.72
2022-10-06T01:50:36.705Z,6.20
2022-10-06T01:53:39.041Z,6.40
2022-10-06T01:56:41.338Z,6.50
2022-10-06T01:59:43.660Z,6.10
2022-10-06T02:02:46.022Z,6.25
2022-10-06T02:05:48.334Z,6.43
2022-10-06T02:08:50.780Z,6.28
2022-10-06T02:11:53.554Z,5.75
2022-10-06T02:14:56.106Z,5.63
2022-10-06T02:17:58.418Z,6.63
2022-10-06T02:21:03.115Z,6.50
2022-10-06T02:24:05.573Z,6.43
2022-10-06T02:27:08.186Z,6.80
2022-10-06T02:30:12.029Z,6.55
2022-10-06T02:33:15.003Z,6.78
2022-10-06T02:36:17.753Z,6.87
2022-10-06T02:39:20.298Z,7.00
2022-10-06T02:42:22.720Z,6.22
2022-10-06T02:45:24.991Z,6.57
2022-10-06T02:48:28.933Z,7.25
2022-10-06T02:51:32.773Z,7.07
2022-10-06T02:54:36.778Z,7.03
2022-10-06T02:57:39.461Z,6.32
2022-10-06T03:00:42.551Z,7.07
2022-10-06T03:03:46.792Z,6.82
2022-10-06T03:06:49.505Z,6.20
2022-10-06T03:09:55.359Z,6.55
2022-10-06T03:12:59.996Z,7.15
2022-10-06T03:16:03.773Z,7.10
2022-10-06T03:19:07.541Z,7.20
2022-10-06T03:22:10.715Z,6.63
2022-10-06T03:25:26.078Z,6.85
2022-10-06T03:28:28.879Z,7.32
2022-10-06T03:31:31.954Z,6.45
2022-10-06T03:34:34.541Z,7.70
2022-10-06T03:37:39.809Z,7.77
2022-10-06T03:40:42.488Z,7.20
2022-10-06T03:43:46.048Z,7.60
2022-10-06T03:46:49.189Z,7.80
2022-10-06T03:49:51.636Z,7.63
2022-10-06T03:52:53.975Z,7.17
2022-10-06T03:56:06.278Z,7.47
2022-10-06T03:59:11.314Z,7.75
2022-10-06T04:02:16.156Z,8.98
2022-10-06T04:05:18.826Z,9.00
2022-10-06T04:08:21.128Z,8.60
2022-10-06T04:11:25.533Z,9.55
2022-10-06T04:14:28.061Z,11.85
2022-10-06T04:17:31.175Z,12.38
2022-10-06T04:20:33.910Z,13.68
2022-10-06T04:23:39.064Z,13.03
2022-10-06T04:26:45.458Z,12.85
2022-10-06T04:29:48.193Z,11.27
2022-10-06T04:32:51.261Z,11.15
2022-10-06T04:36:05.503Z,12.88
2022-10-06T04:39:10.343Z,14.07
2022-10-06T04:42:12.998Z,13.27
2022-10-06T04:45:15.765Z,12.48
2022-10-06T04:48:18.888Z,12.68
2022-10-06T04:51:23.294Z,12.55
2022-10-06T04:54:28.881Z,12.20
2022-10-06T04:57:34.912Z,11.50
2022-10-06T05:00:37.774Z,11.65
2022-10-06T05:03:40.305Z,11.32
2022-10-06T05:06:42.991Z,10.77
2022-10-06T05:09:46.768Z,12.07
2022-10-06T05:12:49.076Z,10.18
2022-10-06T05:15:59.351Z,8.88
2022-10-06T05:19:03.665Z,9.35
2022-10-06T05:22:06.632Z,10.07
2022-10-06T05:25:10.398Z,9.47
2022-10-06T05:28:12.772Z,10.45
2022-10-06T05:31:19.852Z,9.93
2022-10-06T05:34:22.399Z,9.45
2022-10-06T05:37:25.664Z,9.80
2022-10-06T05:40:28.510Z,10.07
2022-10-06T05:43:31.650Z,10.73
2022-10-06T05:46:34.885Z,10.60
2022-10-06T05:49:37.228Z,9.90
2022-10-06T05:52:40.537Z,10.75
2022-10-06T05:55:43.535Z,10.30
2022-10-06T05:58:51.883Z,10.13
2022-10-06T06:01:55.154Z,10.75
2022-10-06T06:05:07.648Z,9.63
2022-10-06T06:08:11.005Z,10.25
2022-10-06T06:11:13.915Z,9.07
2022-10-06T06:14:18.437Z,12.18
2022-10-06T06:17:21.393Z,9.70
2022-10-06T06:20:23.781Z,10.35
2022-10-06T06:23:33.422Z,8.48
2022-10-06T06:26:37.342Z,10.37
2022-10-06T06:29:40.244Z,9.52
2022-10-06T06:32:43.131Z,11.63
2022-10-06T06:35:45.572Z,11.23
2022-10-06T06:38:51.825Z,10.10
2022-10-06T06:41:54.822Z,10.00
2022-10-06T06:45:23.436Z,10.68
2022-10-06T06:48:38.636Z,10.77
2022-10-06T06:51:43.073Z,9.95
2022-10-06T06:54:49.100Z,11.10
2022-10-06T06:57:53.092Z,11.13
2022-10-06T07:00:55.482Z,12.80
2022-10-06T07:04:01.138Z,12.35
2022-10-06T07:07:07.727Z,13.32
2022-10-06T07:10:12.240Z,12.15
2022-10-06T07:13:17.438Z,12.47
2022-10-06T07:16:41.285Z,12.27
2022-10-06T07:20:02.250Z,12.40
2022-10-06T07:23:29.059Z,11.75
2022-10-06T07:26:32.359Z,12.75
2022-10-06T07:29:35.262Z,12.43
2022-10-06T07:32:38.207Z,12.10
2022-10-06T07:35:40.568Z,12.32
2022-10-06T07:38:43.079Z,12.02
2022-10-06T07:41:45.546Z,11.73
2022-10-06T07:45:07.450Z,10.60
2022-10-06T07:48:19.748Z,12.18
2022-10-06T07:51:28.421Z,11.25
2022-10-06T07:54:34.172Z,12.10
2022-10-06T07:58:21.262Z,12.82
2022-10-06T08:01:26.472Z,11.67
2022-10-06T08:04:28.838Z,13.10
2022-10-06T08:07:31.161Z,13.23
2022-10-06T08:10:33.469Z,13.02
2022-10-06T08:13:38.881Z,13.65
2022-10-06T08:16:41.190Z,12.93
2022-10-06T08:19:43.508Z,11.93
2022-10-06T08:22:47.728Z,12.02
2022-10-06T08:25:54.395Z,11.93
2022-10-06T08:29:03.445Z,12.77
2022-10-06T08:32:09.438Z,13.63
2022-10-06T08:35:11.807Z,14.07
2022-10-06T08:38:14.804Z,14.25
2022-10-06T08:41:23.280Z,13.43
2022-10-06T08:44:40.659Z,11.27
2022-10-06T08:48:04.393Z,11.07
2022-10-06T08:51:19.793Z,13.02
2022-10-06T08:54:48.022Z,11.50
2022-10-06T08:58:12.201Z,11.35
2022-10-06T09:01:19.830Z,10.82
2022-10-06T09:04:28.902Z,10.03
2022-10-06T09:07:54.092Z,9.40
2022-10-06T09:11:06.917Z,8.82
2022-10-06T09:14:24.548Z,8.68
2022-10-06T09:17:32.278Z,8.85
2022-10-06T09:20:38.699Z,9.07
2022-10-06T09:23:47.871Z,9.15
2022-10-06T09:26:51.034Z,8.85
2022-10-06T09:29:53.616Z,9.57
2022-10-06T09:33:01.477Z,9.57
2022-10-06T09:36:09.859Z,9.13
2022-10-06T09:39:22.260Z,10.00
2022-10-06T09:42:35.607Z,9.07
2022-10-06T09:45:38.174Z,8.95
2022-10-06T09:48:40.384Z,9.13
2022-10-06T09:51:58.623Z,7.63
2022-10-06T09:55:18.012Z,6.88
2022-10-06T09:58:24.757Z,8.15
2022-10-06T10:01:29.000Z,8.15
2022-10-06T10:04:35.877Z,7.47
2022-10-06T10:07:38.111Z,7.37
2022-10-06T10:10:40.939Z,8.13
2022-10-06T10:13:43.819Z,7.25
2022-10-06T10:16:52.339Z,7.35
2022-10-06T10:19:55.930Z,6.55
2022-10-06T10:23:19.979Z,6.40
2022-10-06T10:26:37.682Z,6.30
2022-10-06T10:30:01.873Z,6.85
2022-10-06T10:33:27.296Z,6.78
2022-10-06T10:36:35.122Z,6.97
2022-10-06T10:39:44.889Z,6.60
2022-10-06T10:42:54.941Z,6.07
2022-10-06T10:46:32.378Z,5.55
2022-10-06T10:49:35.853Z,7.10
2022-10-06T10:52:41.808Z,6.35
2022-10-06T10:55:47.352Z,7.23
2022-10-06T10:58:57.284Z,7.03
2022-10-06T11:02:20.238Z,8.50
2022-10-06T11:05:36.284Z,7.85
2022-10-06T11:09:00.601Z,7.95
2022-10-06T11:12:08.667Z,8.33
2022-10-06T11:15:32.974Z,7.13
2022-10-06T11:18:53.781Z,7.55
2022-10-06T11:22:01.348Z,7.70
2022-10-06T11:25:13.908Z,8.32
2022-10-06T11:28:23.485Z,8.60
2022-10-06T11:31:31.825Z,8.93
2022-10-06T11:34:34.090Z,9.07
2022-10-06T11:37:46.572Z,9.07
2022-10-06T11:41:18.550Z,9.57
2022-10-06T11:44:39.229Z,9.13
2022-10-06T11:48:07.903Z,9.45
2022-10-06T11:51:26.147Z,8.85
2022-10-06T11:54:40.646Z,7.90
2022-10-06T11:58:08.664Z,7.72
2022-10-06T12:01:36.339Z,7.20
2022-10-06T12:04:38.717Z,6.60
2022-10-06T12:07:56.025Z,6.70
2022-10-06T12:10:58.278Z,6.38
2022-10-06T12:15:12.121Z,5.68
2022-10-06T12:17:41.786Z,5.37
2022-10-06T12:20:59.788Z,6.43
2022-10-06T12:24:32.532Z,6.13
2022-10-06T12:27:49.296Z,5.88
2022-10-06T12:31:17.932Z,6.55
2022-10-06T12:34:42.314Z,6.67
2022-10-06T12:37:48.954Z,7.50
2022-10-06T12:40:57.981Z,6.88
2022-10-06T12:44:03.652Z,5.85
2022-10-06T12:47:16.111Z,6.07
2022-10-06T12:50:25.516Z,6.23
2022-10-06T12:53:33.441Z,6.28
2022-10-06T12:56:40.657Z,6.25
2022-10-06T12:59:43.004Z,6.57
2022-10-06T13:02:45.266Z,6.28
2022-10-06T13:05:52.636Z,6.00
2022-10-06T13:09:14.572Z,6.32
2022-10-06T13:12:19.545Z,7.85
2022-10-06T13:15:37.017Z,8.43
2022-10-06T13:18:39.353Z,6.63
2022-10-06T13:21:41.692Z,7.00
2022-10-06T13:24:43.985Z,6.80
2022-10-06T13:27:51.471Z,6.30
2022-10-06T13:30:54.849Z,5.97
2022-10-06T13:34:10.732Z,6.45
2022-10-06T13:37:14.766Z,5.60
2022-10-06T13:40:21.700Z,5.65
2022-10-06T13:43:30.465Z,5.40
2022-10-06T13:46:40.123Z,5.93
2022-10-06T13:50:02.484Z,6.07
2022-10-06T13:53:05.178Z,5.33
2022-10-06T13:59:38.747Z,5.82
2022-10-06T14:02:42.565Z,6.00
2022-10-06T14:05:46.049Z,6.13
2022-10-06T14:08:56.319Z,6.37
2022-10-06T14:12:04.445Z,5.80
2022-10-06T14:15:17.402Z,6.25
2022-10-06T14:18:23.268Z,6.68
2022-10-06T14:21:42.034Z,5.65
2022-10-06T14:24:51.152Z,5.87
2022-10-06T14:27:54.711Z,5.47
2022-10-06T14:30:57.570Z,6.07
2022-10-06T14:34:00.259Z,5.93
2022-10-06T14:37:02.585Z,6.53
2022-10-06T14:40:08.829Z,5.80
2022-10-06T14:43:14.193Z,5.60
2022-10-06T14:46:16.596Z,5.50
2022-10-06T14:49:19.622Z,5.53
2022-10-06T14:52:22.363Z,5.25
2022-10-06T14:55:30.416Z,5.37
2022-10-06T14:58:37.032Z,5.55
2022-10-06T15:01:40.743Z,5.18
2022-10-06T15:04:43.032Z,5.07
2022-10-06T15:08:04.239Z,5.07
2022-10-06T15:11:06.464Z,5.60
2022-10-06T15:14:09.467Z,5.95
2022-10-06T15:17:12.051Z,5.20
2022-10-06T15:20:14.594Z,4.93
2022-10-06T15:23:17.433Z,5.75
2022-10-06T15:26:38.345Z,5.77
2022-10-06T15:29:40.916Z,5.55
2022-10-06T15:32:43.305Z,5.07
2022-10-06T15:35:50.879Z,6.55
2022-10-06T15:38:54.547Z,6.20
2022-10-06T15:41:57.391Z,6.37
2022-10-06T15:45:02.820Z,6.00
2022-10-06T15:48:09.463Z,5.57
2022-10-06T15:51:11.764Z,6.13
2022-10-06T15:54:16.510Z,6.07
2022-10-06T15:57:21.314Z,7.00
2022-10-06T16:00:23.796Z,6.10
2022-10-06T16:03:40.222Z,6.38
2022-10-06T16:06:50.366Z,6.25
2022-10-06T16:09:53.057Z,6.25
2022-10-06T16:12:55.292Z,6.80
2022-10-06T16:15:57.841Z,6.10
2022-10-06T16:19:02.350Z,6.60
2022-10-06T16:22:06.161Z,6.45
2022-10-06T16:25:08.693Z,6.50
2022-10-06T16:28:11.058Z,6.10
2022-10-06T16:31:13.477Z,5.38
2022-10-06T16:34:16.466Z,5.95
2022-10-06T16:37:18.808Z,6.15
2022-10-06T16:40:23.081Z,5.70
2022-10-06T16:43:38.177Z,5.50
2022-10-06T16:46:40.728Z,5.38
2022-10-06T16:49:43.110Z,6.30
2022-10-06T16:52:45.345Z,5.60
2022-10-06T16:55:47.556Z,5.18
2022-10-06T16:59:00.365Z,4.77
2022-10-06T17:02:02.612Z,5.35
2022-10-06T17:05:05.296Z,5.13
2022-10-06T17:08:07.558Z,5.00
2022-10-06T17:11:15.930Z,5.00
2022-10-06T17:14:19.538Z,5.23
2022-10-06T17:17:21.796Z,4.55
2022-10-06T17:20:24.082Z,4.88
2022-10-06T17:23:27.333Z,5.75
2022-10-06T17:26:31.768Z,6.72
2022-10-06T17:29:34.020Z,7.13
2022-10-06T17:32:36.576Z,7.43
2022-10-06T17:35:38.878Z,6.72
2022-10-06T17:38:45.506Z,7.47
2022-10-06T17:41:49.321Z,6.63
2022-10-06T17:44:52.778Z,5.23
2022-10-06T17:47:55.017Z,6.03
2022-10-06T17:51:00.384Z,6.40
2022-10-06T17:54:05.136Z,6.80
2022-10-06T17:57:07.449Z,6.55
2022-10-06T18:00:10.417Z,7.30
2022-10-06T18:03:15.661Z,7.25
2022-10-06T18:06:19.789Z,7.18
2022-10-06T18:09:22.744Z,8.45
2022-10-06T18:12:25.073Z,8.35
2022-10-06T18:15:27.371Z,7.47
2022-10-06T18:18:30.423Z,7.60
2022-10-06T18:21:38.904Z,7.57
2022-10-06T18:24:41.416Z,8.55
2022-10-06T18:27:44.118Z,8.30
2022-10-06T18:30:50.562Z,8.20
2022-10-06T18:37:16.036Z,8.18
2022-10-06T18:40:18.378Z,9.00
2022-10-06T18:43:20.854Z,9.68
2022-10-06T18:46:41.814Z,9.20
2022-10-06T18:49:44.278Z,10.13
2022-10-06T18:52:46.506Z,9.55
2022-10-06T18:55:51.679Z,9.45
2022-10-06T18:58:53.973Z,10.32
2022-10-06T19:01:56.798Z,10.80
2022-10-06T19:04:59.187Z,11.32
2022-10-06T19:08:01.824Z,11.25
2022-10-06T19:11:26.679Z,11.75
2022-10-06T19:14:35.599Z,11.35
2022-10-06T19:17:41.149Z,11.43
2022-10-06T19:20:50.701Z,11.43
2022-10-06T19:23:52.956Z,11.40
2022-10-06T19:26:56.436Z,12.02
2022-10-06T19:29:58.893Z,11.88
2022-10-06T19:33:01.204Z,11.50
2022-10-06T19:36:04.136Z,10.85
2022-10-06T19:39:10.516Z,10.80
2022-10-06T19:42:33.492Z,11.18
2022-10-06T19:45:35.791Z,11.70
2022-10-06T19:48:38.176Z,12.13
2022-10-06T19:51:41.353Z,12.10
2022-10-06T19:54:43.698Z,12.18
2022-10-06T19:57:46.353Z,11.98
2022-10-06T20:00:49.058Z,12.32
2022-10-06T20:03:51.501Z,12.13
2022-10-06T20:06:53.982Z,12.10
2022-10-06T20:09:56.260Z,12.63
2022-10-06T20:12:58.775Z,12.73
2022-10-06T20:16:02.749Z,12.30
2022-10-06T20:19:07.736Z,12.33
2022-10-06T20:22:10.011Z,13.10
2022-10-06T20:25:12.303Z,14.20
2022-10-06T20:28:14.610Z,12.57
2022-10-06T20:31:19.859Z,13.38
2022-10-06T20:34:24.846Z,13.10
2022-10-06T20:37:27.464Z,14.38
2022-10-06T20:40:47.134Z,14.05
2022-10-06T20:43:49.918Z,15.68
2022-10-06T20:46:54.403Z,15.00
2022-10-06T20:49:56.738Z,16.20
2022-10-06T20:52:59.152Z,14.93
2022-10-06T20:56:01.688Z,14.77
2022-10-06T20:59:07.600Z,14.25
2022-10-06T21:02:10.738Z,15.68
2022-10-06T21:05:13.059Z,14.07
2022-10-06T21:08:15.369Z,14.57
2022-10-06T21:11:19.775Z,15.70
2022-10-06T21:14:22.048Z,14.70
2022-10-06T21:17:24.614Z,14.20
2022-10-06T21:20:26.862Z,15.00
2022-10-06T21:23:30.219Z,15.50
2022-10-06T21:26:33.735Z,14.50
2022-10-06T21:29:36.393Z,14.63
2022-10-06T21:32:38.663Z,14.23
2022-10-06T21:35:41.191Z,14.17
2022-10-06T21:38:45.615Z,16.15
2022-10-06T21:41:47.889Z,14.55
2022-10-06T21:44:50.297Z,15.43
2022-10-06T21:47:52.903Z,15.07
2022-10-06T21:50:55.444Z,14.67
2022-10-06T21:53:59.385Z,14.93
2022-10-06T21:57:01.985Z,14.40
2022-10-06T22:00:05.331Z,14.38
2022-10-06T22:03:15.175Z,13.77
2022-10-06T22:06:19.544Z,13.17
2022-10-06T22:09:22.195Z,13.52
2022-10-06T22:12:24.455Z,14.13
2022-10-06T22:15:26.757Z,13.25
2022-10-06T22:18:29.039Z,13.38
2022-10-06T22:21:33.389Z,12.73
2022-10-06T22:24:35.649Z,12.68
2022-10-06T22:27:37.858Z,12.82
2022-10-06T22:30:40.147Z,12.80
2022-10-06T22:33:44.300Z,11.65
2022-10-06T22:36:46.695Z,12.67
2022-10-06T22:39:48.978Z,12.13
2022-10-06T22:42:51.201Z,12.02
2022-10-06T22:45:53.686Z,12.35
2022-10-06T22:48:56.388Z,12.15
2022-10-06T22:51:58.641Z,12.30
2022-10-06T22:55:00.908Z,12.48
2022-10-06T22:58:03.207Z,11.65
2022-10-06T23:01:10.796Z,13.05
2022-10-06T23:04:13.150Z,12.95
2022-10-06T23:07:15.427Z,13.87
2022-10-06T23:10:19.043Z,12.95
2022-10-06T23:13:21.619Z,13.50
2022-10-06T23:16:24.106Z,13.77
2022-10-06T23:19:26.377Z,13.68
2022-10-06T23:22:28.615Z,14.43
2022-10-06T23:25:30.938Z,14.20
2022-10-06T23:28:33.651Z,14.98
2022-10-06T23:31:35.972Z,14.02
2022-10-06T23:34:38.221Z,14.38
2022-10-06T23:37:40.478Z,14.43
2022-10-06T23:40:42.793Z,13.73
2022-10-06T23:43:45.193Z,13.98
2022-10-06T23:46:47.487Z,13.20
2022-10-06T23:49:49.949Z,13.88
2022-10-06T23:52:52.156Z,13.87
2022-10-06T23:55:54.686Z,13.48
2022-10-06T23:58:57.149Z,14.20
